createdAt,value
2019-05-17T00:04:23.320Z,21.21
2019-05-17T00:09:31.041Z,21.18
2019-05-17T00:14:38.955Z,22.16
2019-05-17T00:19:46.917Z,28.37
2019-05-17T00:24:56.680Z,24.60
2019-05-17T00:30:02.005Z,24.94
2019-05-17T00:35:09.689Z,24.83
2019-05-17T00:40:17.310Z,24.41
2019-05-17T00:45:31.777Z,28.45
2019-05-17T00:50:29.360Z,24.46
2019-05-17T00:55:37.380Z,30.22
2019-05-17T01:00:47.686Z,28.23
2019-05-17T01:05:52.209Z,34.78
2019-05-17T01:10:59.828Z,34.24
2019-05-17T01:16:07.674Z,33.64
2019-05-17T01:21:16.853Z,29.13
2019-05-17T01:26:22.606Z,28.60
2019-05-17T01:31:30.410Z,29.68
2019-05-17T01:36:38.027Z,30.07
2019-05-17T01:41:46.919Z,30.07
2019-05-17T01:46:56.605Z,29.94
2019-05-17T01:52:01.424Z,31.29
2019-05-17T01:57:09.069Z,30.60
2019-05-17T02:02:17.016Z,31.29
2019-05-17T02:07:26.752Z,30.82
2019-05-17T02:12:32.118Z,31.49
2019-05-17T02:17:39.754Z,31.42
2019-05-17T02:22:47.623Z,31.18
2019-05-17T02:27:55.160Z,31.38
2019-05-17T02:33:04.045Z,37.28
2019-05-17T02:38:12.978Z,30.10
2019-05-17T02:43:17.108Z,29.72
2019-05-17T02:48:24.709Z,30.27
2019-05-17T02:53:33.433Z,31.35
2019-05-17T02:58:39.526Z,32.72
2019-05-17T03:03:47.213Z,32.76
2019-05-17T03:08:54.849Z,41.25
2019-05-17T03:14:03.929Z,35.13
2019-05-17T03:19:12.930Z,34.50
2019-05-17T03:24:17.445Z,34.89
2019-05-17T03:29:25.086Z,35.12
2019-05-17T03:34:37.077Z,42.36
2019-05-17T03:39:42.724Z,36.10
2019-05-17T03:44:47.652Z,38.39
2019-05-17T03:49:55.320Z,37.12
2019-05-17T03:55:04.014Z,38.93
2019-05-17T04:00:13.086Z,39.96
2019-05-17T04:05:17.301Z,39.27
2019-05-17T04:10:24.977Z,38.56
2019-05-17T04:15:33.031Z,38.08
2019-05-17T04:20:43.058Z,39.83
2019-05-17T04:25:47.205Z,38.24
2019-05-17T04:30:54.817Z,37.93
2019-05-17T04:36:02.904Z,44.24
2019-05-17T04:41:09.645Z,44.02
2019-05-17T04:46:17.277Z,37.34
2019-05-17T04:51:24.958Z,37.29
2019-05-17T04:56:33.380Z,45.52
2019-05-17T05:01:43.231Z,36.80
2019-05-17T05:06:47.309Z,36.48
2019-05-17T05:12:01.383Z,36.24
2019-05-17T05:17:02.679Z,36.39
2019-05-17T05:22:09.217Z,35.69
2019-05-17T05:27:16.825Z,36.70
2019-05-17T05:32:24.475Z,43.89
2019-05-17T05:37:33.157Z,34.69
2019-05-17T05:42:39.300Z,41.55
2019-05-17T05:47:47.183Z,33.95
2019-05-17T05:52:54.860Z,32.15
2019-05-17T05:58:03.084Z,32.08
2019-05-17T06:03:11.927Z,31.74
2019-05-17T06:08:17.080Z,38.06
2019-05-17T06:13:24.684Z,32.23
2019-05-17T06:18:32.307Z,32.34
2019-05-17T06:23:42.230Z,30.12
2019-05-17T06:28:47.065Z,30.90
2019-05-17T06:33:54.677Z,30.20
2019-05-17T06:39:02.356Z,31.38
2019-05-17T06:44:12.125Z,35.32
2019-05-17T06:49:17.260Z,28.79
2019-05-17T06:54:24.921Z,27.08
2019-05-17T06:59:32.669Z,30.81
2019-05-17T07:04:40.480Z,24.15
2019-05-17T07:09:49.671Z,22.41
2019-05-17T07:14:58.224Z,19.67
2019-05-17T07:20:02.726Z,21.76
2019-05-17T07:25:10.956Z,20.38
2019-05-17T07:30:19.515Z,21.90
2019-05-17T07:35:25.249Z,21.46
2019-05-17T07:40:32.832Z,22.75
2019-05-17T07:45:40.724Z,23.20
2019-05-17T07:50:50.193Z,19.94
2019-05-17T07:55:55.485Z,20.76
2019-05-17T08:01:03.212Z,19.97
2019-05-17T08:06:11.028Z,19.98
2019-05-17T08:11:19.657Z,19.72
2019-05-17T08:16:25.760Z,19.91
2019-05-17T08:21:33.360Z,20.04
2019-05-17T08:26:40.984Z,21.35
2019-05-17T08:31:49.721Z,22.87
2019-05-17T08:36:55.906Z,22.78
2019-05-17T08:42:03.496Z,22.62
2019-05-17T08:47:11.100Z,23.09
2019-05-17T08:52:20.063Z,24.15
2019-05-17T08:57:26.136Z,25.28
2019-05-17T09:02:33.744Z,25.28
2019-05-17T09:07:41.346Z,24.72
2019-05-17T09:12:50.280Z,29.17
2019-05-17T09:17:56.172Z,31.04
2019-05-17T09:23:03.829Z,24.52
2019-05-17T09:28:11.593Z,23.43
2019-05-17T09:33:19.298Z,26.70
2019-05-17T09:38:26.937Z,22.18
2019-05-17T09:43:34.524Z,20.89
2019-05-17T09:48:42.164Z,21.94
2019-05-17T09:53:50.129Z,22.40
2019-05-17T09:59:00.226Z,22.90
2019-05-17T10:04:04.871Z,25.98
2019-05-17T10:09:12.488Z,23.38
2019-05-17T10:14:28.097Z,25.67
2019-05-17T10:19:29.413Z,23.38
2019-05-17T10:24:38.013Z,21.57
2019-05-17T10:29:41.956Z,20.34
2019-05-17T10:34:49.623Z,20.12
2019-05-17T10:39:57.245Z,20.98
2019-05-17T10:45:04.832Z,21.79
2019-05-17T10:50:12.463Z,22.23
2019-05-17T10:55:20.159Z,21.67
2019-05-17T11:00:30.130Z,21.24
2019-05-17T11:05:34.815Z,23.78
2019-05-17T11:10:42.501Z,18.83
2019-05-17T11:15:50.084Z,15.99
2019-05-17T11:20:57.704Z,15.89
2019-05-17T11:26:05.343Z,15.53
2019-05-17T11:31:13.216Z,13.29
2019-05-17T11:36:20.814Z,13.13
2019-05-17T11:41:28.404Z,13.04
2019-05-17T11:46:36.603Z,12.40
2019-05-17T11:51:43.141Z,11.36
2019-05-17T11:56:50.773Z,12.39
2019-05-17T12:01:58.355Z,11.39
2019-05-17T12:07:05.966Z,14.56
2019-05-17T12:12:13.564Z,12.38
2019-05-17T12:17:22.009Z,14.47
2019-05-17T12:22:29.594Z,14.31
2019-05-17T12:27:37.251Z,13.11
2019-05-17T12:32:44.841Z,12.08
2019-05-17T12:37:52.484Z,11.56
2019-05-17T12:43:00.091Z,12.73
2019-05-17T12:48:07.681Z,13.87
2019-05-17T12:53:15.268Z,11.98
2019-05-17T12:58:22.928Z,11.95
2019-05-17T13:03:30.516Z,14.76
2019-05-17T13:08:38.181Z,11.86
2019-05-17T13:13:45.781Z,11.69
2019-05-17T13:18:53.386Z,12.57
2019-05-17T13:24:00.996Z,11.97
2019-05-17T13:29:08.620Z,11.40
2019-05-17T13:34:16.189Z,11.31
2019-05-17T13:39:23.844Z,9.55
2019-05-17T13:44:31.474Z,10.97
2019-05-17T13:49:39.380Z,10.38
2019-05-17T13:54:46.973Z,11.68
2019-05-17T13:59:54.807Z,11.93
2019-05-17T14:05:02.393Z,15.44
2019-05-17T14:10:26.107Z,15.08
2019-05-17T14:15:17.136Z,15.29
2019-05-17T14:20:24.764Z,16.85
2019-05-17T14:25:32.369Z,14.62
2019-05-17T14:30:40.178Z,16.93
2019-05-17T14:35:47.765Z,16.11
2019-05-17T14:41:07.296Z,14.21
2019-05-17T14:46:02.558Z,15.11
2019-05-17T14:51:10.161Z,17.24
2019-05-17T14:56:17.772Z,17.27
2019-05-17T15:01:25.361Z,18.53
2019-05-17T15:06:32.964Z,21.55
2019-05-17T15:11:40.654Z,20.70
2019-05-17T15:16:48.254Z,17.96
2019-05-17T15:21:55.873Z,17.74
2019-05-17T15:27:05.769Z,17.28
2019-05-17T15:32:10.641Z,17.74
2019-05-17T15:37:18.532Z,17.90
2019-05-17T15:42:26.124Z,18.17
2019-05-17T15:47:33.746Z,17.75
2019-05-17T15:52:41.337Z,16.54
2019-05-17T15:57:48.957Z,17.28
2019-05-17T16:02:56.552Z,16.96
2019-05-17T16:08:04.160Z,16.17
2019-05-17T16:13:11.877Z,15.64
2019-05-17T16:18:19.485Z,14.65
2019-05-17T16:23:27.106Z,14.94
2019-05-17T16:28:34.718Z,15.21
2019-05-17T16:33:42.329Z,15.69
2019-05-17T16:38:49.925Z,15.44
2019-05-17T16:43:57.588Z,15.93
2019-05-17T16:49:05.184Z,15.35
2019-05-17T16:54:12.808Z,14.94
2019-05-17T16:59:20.400Z,14.93
2019-05-17T17:04:28.017Z,15.49
2019-05-17T17:09:35.601Z,16.17
2019-05-17T17:14:43.497Z,16.54
2019-05-17T17:19:52.126Z,16.03
2019-05-17T17:24:59.762Z,15.57
2019-05-17T17:30:07.405Z,18.04
2019-05-17T17:35:15.038Z,15.77
2019-05-17T17:40:22.648Z,16.37
2019-05-17T17:45:30.325Z,16.08
2019-05-17T17:50:38.228Z,18.25
2019-05-17T17:55:45.895Z,16.45
2019-05-17T18:00:53.503Z,16.42
2019-05-17T18:06:01.120Z,17.15
2019-05-17T18:11:08.806Z,16.58
2019-05-17T18:16:16.400Z,19.97
2019-05-17T18:21:24.036Z,17.63
2019-05-17T18:26:31.629Z,17.98
2019-05-17T18:31:39.225Z,19.41
2019-05-17T18:36:46.817Z,19.91
2019-05-17T18:41:54.910Z,20.18
2019-05-17T18:47:01.561Z,27.02
2019-05-17T18:52:09.168Z,22.14
2019-05-17T18:57:16.767Z,21.88
2019-05-17T19:02:24.408Z,21.09
2019-05-17T19:07:32.060Z,21.83
2019-05-17T19:12:39.657Z,22.39
2019-05-17T19:17:47.272Z,23.37
2019-05-17T19:22:54.852Z,27.83
2019-05-17T19:28:02.578Z,24.08
2019-05-17T19:33:10.133Z,23.92
2019-05-17T19:38:18.205Z,23.32
2019-05-17T19:43:25.815Z,25.41
2019-05-17T19:48:33.488Z,26.80
2019-05-17T19:53:41.097Z,27.04
2019-05-17T19:58:48.711Z,26.78
2019-05-17T20:03:56.325Z,28.37
2019-05-17T20:09:04.029Z,27.37
2019-05-17T20:14:11.929Z,28.15
2019-05-17T20:19:19.548Z,27.28
2019-05-17T20:24:27.159Z,31.20
2019-05-17T20:29:34.780Z,33.24
2019-05-17T20:34:42.367Z,33.43
2019-05-17T20:39:50.302Z,29.88
2019-05-17T20:44:57.984Z,35.61
2019-05-17T20:50:05.655Z,36.52
2019-05-17T20:55:13.246Z,30.64
2019-05-17T21:00:20.857Z,31.77
2019-05-17T21:05:28.441Z,31.21
2019-05-17T21:10:36.073Z,32.33
2019-05-17T21:15:47.963Z,30.92
2019-05-17T21:20:51.220Z,37.37
2019-05-17T21:25:59.398Z,37.02
2019-05-17T21:31:08.138Z,30.92
2019-05-17T21:36:13.590Z,31.86
2019-05-17T21:41:21.364Z,33.56
2019-05-17T21:46:29.002Z,41.07
2019-05-17T21:51:36.629Z,34.42
2019-05-17T21:56:44.234Z,35.00
2019-05-17T22:01:51.843Z,35.83
2019-05-17T22:06:59.550Z,43.10
2019-05-17T22:12:07.209Z,35.15
2019-05-17T22:17:14.817Z,35.48
2019-05-17T22:22:22.408Z,35.76
2019-05-17T22:27:30.024Z,36.24
2019-05-17T22:32:37.617Z,36.05
2019-05-17T22:37:45.213Z,43.08
2019-05-17T22:42:52.818Z,42.71
2019-05-17T22:48:00.741Z,34.83
2019-05-17T22:53:08.346Z,41.90
2019-05-17T22:58:15.945Z,43.25
2019-05-17T23:03:23.809Z,35.06
2019-05-17T23:08:31.421Z,42.82
2019-05-17T23:13:39.118Z,42.22
2019-05-17T23:18:46.717Z,33.50
2019-05-17T23:23:54.625Z,33.46
2019-05-17T23:29:02.308Z,34.31
2019-05-17T23:34:09.860Z,33.78
2019-05-17T23:39:17.463Z,35.28
2019-05-17T23:44:25.057Z,34.14
2019-05-17T23:49:32.686Z,32.53
2019-05-17T23:54:40.406Z,34.33
2019-05-17T23:59:48.047Z,33.89
